Archival Weather

Aeroparque Jorge Newbery

Buenos Aires, Argentina (SABE)

Report from: Thursday, February 22, 2024 6:00 AM -03
Current time: Tuesday, April 23, 2024 4:46 AM -03

Current weather – Weather history – Daily summaries
Weather forecast

Temperature24.0°C (75.2°F)
Dew point20.0°C (68.0°F)
Winds 12 kts (6.2 m/s, 13.8 mph) North (360°)
Clouds Sky clear
Altimeter29.77 in.Hg (1008 mB)
Relative humidity78 %
Density altitude1,538 ft. (469 m)
Remarks Ceiling and visibility OK
No significant changes expected in the next two hours
Flight conditions Visual Meteorological Conditions
Raw dataSABE 220900Z 36012KT CAVOK 24/20 Q1008 NOSIG
An error has occurred. This application may no longer respond until reloaded. Reload 🗙